Weather at Comandante Espora Airport

Public forecast

Using degrees Celsius for public forecast. Weather courtesy of forecast.io.

Current aviation weather report (METAR) for Comandante Espora Airport

Report is more than 6 hours old.

Retrieved 2021/09/20 13:50 UTC (5 days ago):

SAZB 201350Z 18010KT 9999 SCT013 13/09 Q1026

Aviation forecast (TAF) for Comandante Espora Airport

Forecast is more than 12 hours old.

Retrieved 2021/09/18 12:51 UTC (7 days ago):

TAF COR SAZB 181130Z 1812/1912 34005KT CAVOK TX26/1818Z TN07/1910Z BECMG 1815/1817 SCT030 BKN100 BECMG 1819/1821 14012KT 9999 BKN030 FEW045CB TEMPO 1820/1906 VRB15KT 7000 TSRA BKN020 FEW040CB BKN080 BECMG 1906/1909 VRB15KT 5000 TSRA BKN015 FEW040CB BKN080